createdAt,value
2022-11-25T00:00:03.044Z,25.27
2022-11-25T00:02:44.299Z,16.27
2022-11-25T00:05:11.063Z,18.73
2022-11-25T00:07:38.399Z,22.70
2022-11-25T00:10:06.811Z,18.77
2022-11-25T00:12:33.472Z,24.25
2022-11-25T00:15:00.199Z,11.80
2022-11-25T00:17:26.805Z,17.42
2022-11-25T00:19:53.564Z,17.92
2022-11-25T00:22:20.159Z,15.20
2022-11-25T00:24:46.815Z,17.27
2022-11-25T00:27:13.484Z,17.58
2022-11-25T00:29:40.111Z,18.15
2022-11-25T00:32:06.865Z,17.63
2022-11-25T00:34:33.740Z,14.05
2022-11-25T00:37:00.496Z,24.90
2022-11-25T00:39:27.324Z,21.95
2022-11-25T00:42:12.603Z,13.80
2022-11-25T00:44:40.664Z,16.83
2022-11-25T00:47:14.043Z,20.20
2022-11-25T00:49:44.902Z,18.55
2022-11-25T00:52:15.498Z,14.27
2022-11-25T00:54:42.511Z,19.83
2022-11-25T00:57:09.216Z,16.35
2022-11-25T00:59:35.840Z,17.02
2022-11-25T01:02:02.576Z,18.15
2022-11-25T01:04:29.305Z,13.88
2022-11-25T01:06:56.784Z,15.27
2022-11-25T01:09:23.800Z,19.23
2022-11-25T01:11:51.584Z,25.15
2022-11-25T01:14:22.006Z,15.35
2022-11-25T01:16:48.818Z,21.50
2022-11-25T01:19:16.251Z,14.10
2022-11-25T01:21:43.173Z,24.42
2022-11-25T01:24:13.927Z,14.32
2022-11-25T01:26:41.288Z,14.70
2022-11-25T01:29:14.642Z,18.88
2022-11-25T01:31:42.179Z,21.45
2022-11-25T01:34:15.026Z,20.08
2022-11-25T01:36:42.488Z,22.48
2022-11-25T01:39:32.797Z,18.60
2022-11-25T01:42:00.771Z,17.98
2022-11-25T01:44:30.728Z,20.70
2022-11-25T01:47:23.365Z,23.52
2022-11-25T01:50:03.228Z,25.77
2022-11-25T01:52:36.320Z,19.48
2022-11-25T01:55:28.399Z,18.73
2022-11-25T01:58:02.033Z,18.92
2022-11-25T02:00:28.843Z,19.85
2022-11-25T02:02:57.350Z,17.13
2022-11-25T02:05:35.128Z,11.40
2022-11-25T02:08:02.866Z,21.08
2022-11-25T02:10:32.220Z,22.13
2022-11-25T02:12:59.863Z,15.00
2022-11-25T02:15:28.645Z,20.85
2022-11-25T02:17:56.086Z,15.18
2022-11-25T02:20:24.448Z,17.40
2022-11-25T02:23:06.185Z,11.98
2022-11-25T02:28:13.239Z,13.90
2022-11-25T02:30:40.775Z,22.35
2022-11-25T02:33:07.861Z,15.18
2022-11-25T02:35:41.520Z,11.27
2022-11-25T02:38:20.708Z,14.02
2022-11-25T02:40:59.783Z,13.60
2022-11-25T02:43:27.078Z,17.27
2022-11-25T02:46:07.954Z,15.23
2022-11-25T02:51:26.784Z,14.80
2022-11-25T02:53:53.928Z,15.05
2022-11-25T02:56:22.514Z,16.13
2022-11-25T02:58:49.223Z,11.23
2022-11-25T03:01:16.183Z,15.75
2022-11-25T03:03:43.179Z,11.02
2022-11-25T03:06:09.846Z,9.68
2022-11-25T03:08:37.945Z,16.58
2022-11-25T03:11:07.845Z,20.10
2022-11-25T03:13:34.630Z,12.70
2022-11-25T03:16:01.502Z,11.75
2022-11-25T03:18:28.365Z,13.95
2022-11-25T03:20:55.649Z,17.83
2022-11-25T03:23:24.415Z,12.73
2022-11-25T03:25:54.103Z,20.40
2022-11-25T03:28:20.876Z,17.92
2022-11-25T03:30:47.803Z,15.23
2022-11-25T03:33:14.612Z,19.40
2022-11-25T03:35:41.366Z,13.68
2022-11-25T03:38:08.028Z,18.02
2022-11-25T03:40:37.042Z,14.98
2022-11-25T03:43:04.977Z,18.92
2022-11-25T03:45:31.815Z,11.00
2022-11-25T03:48:00.915Z,17.45
2022-11-25T03:50:27.936Z,17.70
2022-11-25T03:52:54.576Z,15.52
2022-11-25T03:55:21.419Z,10.55
2022-11-25T03:57:50.044Z,20.77
2022-11-25T04:00:17.450Z,12.18
2022-11-25T04:02:54.204Z,15.35
2022-11-25T04:05:21.485Z,12.35
2022-11-25T04:07:51.231Z,18.95
2022-11-25T04:10:21.561Z,13.63
2022-11-25T04:12:48.273Z,12.57
2022-11-25T04:15:25.506Z,14.20
2022-11-25T04:17:56.569Z,11.98
2022-11-25T04:20:24.118Z,16.27
2022-11-25T04:22:57.175Z,21.55
2022-11-25T04:25:23.794Z,13.45
2022-11-25T04:27:52.024Z,19.17
2022-11-25T04:30:24.885Z,21.80
2022-11-25T04:32:52.628Z,18.00
2022-11-25T04:35:19.526Z,15.57
2022-11-25T04:37:50.716Z,12.20
2022-11-25T04:40:17.902Z,20.70
2022-11-25T04:42:49.609Z,14.25
2022-11-25T04:45:24.091Z,18.27
2022-11-25T04:47:53.062Z,13.60
2022-11-25T04:50:23.031Z,16.02
2022-11-25T04:52:56.184Z,15.70
2022-11-25T04:55:23.909Z,17.00
2022-11-25T04:57:51.064Z,20.52
2022-11-25T05:00:19.673Z,10.43
2022-11-25T05:02:46.973Z,18.77
2022-11-25T05:05:23.969Z,21.75
2022-11-25T05:07:50.860Z,18.55
2022-11-25T05:10:20.278Z,13.00
2022-11-25T05:12:48.834Z,11.82
2022-11-25T05:15:18.363Z,14.30
2022-11-25T05:17:47.145Z,13.20
2022-11-25T05:20:16.954Z,7.40
2022-11-25T05:22:43.574Z,10.70
2022-11-25T05:25:16.546Z,13.95
2022-11-25T05:27:55.795Z,16.83
2022-11-25T05:30:22.487Z,11.32
2022-11-25T05:32:49.461Z,11.05
2022-11-25T05:35:16.306Z,13.90
2022-11-25T05:37:44.873Z,12.32
2022-11-25T05:40:13.741Z,13.75
2022-11-25T05:43:03.394Z,8.02
2022-11-25T05:45:33.043Z,15.90
2022-11-25T05:47:59.733Z,13.23
2022-11-25T05:50:28.330Z,11.30
2022-11-25T05:53:11.396Z,11.43
2022-11-25T05:55:38.133Z,15.90
2022-11-25T05:58:11.159Z,19.40
2022-11-25T06:00:37.830Z,13.05
2022-11-25T06:05:36.781Z,13.77
2022-11-25T06:08:03.591Z,19.77
2022-11-25T06:10:30.760Z,20.75
2022-11-25T06:12:57.409Z,19.15
2022-11-25T06:15:24.372Z,15.93
2022-11-25T06:17:52.863Z,16.17
2022-11-25T06:20:24.276Z,14.50
2022-11-25T06:22:51.402Z,11.23
2022-11-25T06:25:24.384Z,14.07
2022-11-25T06:28:11.961Z,14.35
2022-11-25T06:30:38.617Z,15.38
2022-11-25T06:33:22.324Z,24.25
2022-11-25T06:35:49.905Z,15.45
2022-11-25T06:38:16.524Z,19.98
2022-11-25T06:40:43.164Z,19.73
2022-11-25T06:43:09.790Z,14.98
2022-11-25T06:45:36.407Z,15.48
2022-11-25T06:48:03.491Z,20.40
2022-11-25T06:50:30.156Z,13.48
2022-11-25T06:52:56.814Z,20.00
2022-11-25T06:55:23.414Z,15.75
2022-11-25T06:57:51.355Z,15.88
2022-11-25T07:00:20.337Z,14.48
2022-11-25T07:02:48.929Z,15.63
2022-11-25T07:05:15.830Z,16.52
2022-11-25T07:07:42.610Z,15.90
2022-11-25T07:10:09.659Z,18.08
2022-11-25T07:12:36.300Z,9.73
2022-11-25T07:15:03.328Z,11.48
2022-11-25T07:17:29.941Z,18.92
2022-11-25T07:19:56.667Z,16.25
2022-11-25T07:22:23.353Z,15.70
2022-11-25T07:24:49.952Z,19.27
2022-11-25T07:27:16.633Z,19.98
2022-11-25T07:30:03.103Z,17.15
2022-11-25T07:32:33.207Z,20.33
2022-11-25T07:34:59.837Z,14.07
2022-11-25T07:37:27.592Z,15.38
2022-11-25T07:39:54.253Z,22.60
2022-11-25T07:42:20.904Z,17.60
2022-11-25T07:44:49.226Z,20.60
2022-11-25T07:47:35.881Z,20.73
2022-11-25T07:50:02.976Z,17.35
2022-11-25T07:52:29.643Z,17.27
2022-11-25T07:54:56.235Z,20.05
2022-11-25T07:57:22.895Z,24.08
2022-11-25T07:59:49.482Z,16.77
2022-11-25T08:02:16.174Z,21.42
2022-11-25T08:04:42.929Z,25.80
2022-11-25T08:07:10.946Z,22.00
2022-11-25T08:09:37.981Z,26.15
2022-11-25T08:12:05.082Z,20.27
2022-11-25T08:14:32.035Z,20.40
2022-11-25T08:16:58.738Z,25.40
2022-11-25T08:19:31.113Z,24.75
2022-11-25T08:21:58.148Z,16.40
2022-11-25T08:24:24.763Z,18.20
2022-11-25T08:26:52.073Z,18.02
2022-11-25T08:29:19.391Z,28.23
2022-11-25T08:31:46.246Z,23.88
2022-11-25T08:34:22.802Z,21.95
2022-11-25T08:36:53.161Z,24.98
2022-11-25T08:39:51.742Z,26.60
2022-11-25T08:42:08.595Z,15.38
2022-11-25T08:44:36.119Z,17.25
2022-11-25T08:47:02.791Z,17.60
2022-11-25T08:49:31.124Z,22.20
2022-11-25T08:52:00.397Z,19.10
2022-11-25T08:54:27.035Z,19.77
2022-11-25T08:56:55.010Z,17.67
2022-11-25T08:59:22.806Z,15.32
2022-11-25T09:01:49.619Z,17.98
2022-11-25T09:04:16.303Z,13.32
2022-11-25T09:06:42.934Z,20.02
2022-11-25T09:09:09.690Z,15.25
2022-11-25T09:11:36.514Z,19.38
2022-11-25T09:14:03.340Z,13.75
2022-11-25T09:16:30.293Z,17.95
2022-11-25T09:18:57.039Z,11.77
2022-11-25T09:21:24.743Z,17.48
2022-11-25T09:23:52.654Z,16.38
2022-11-25T09:26:28.101Z,12.00
2022-11-25T09:28:55.429Z,16.20
2022-11-25T09:31:22.948Z,11.70
2022-11-25T09:33:49.652Z,18.55
2022-11-25T09:36:18.370Z,19.42
2022-11-25T09:38:45.525Z,15.07
2022-11-25T09:42:06.670Z,13.80
2022-11-25T09:45:22.241Z,15.38
2022-11-25T09:48:07.630Z,16.83
2022-11-25T09:51:11.888Z,17.25
2022-11-25T09:53:53.766Z,13.15
2022-11-25T09:59:05.440Z,14.95
2022-11-25T10:01:34.894Z,22.00
2022-11-25T10:04:04.145Z,17.23
2022-11-25T10:06:38.008Z,16.83
2022-11-25T10:09:17.897Z,12.32
2022-11-25T10:12:01.267Z,21.08
2022-11-25T10:14:46.455Z,11.85
2022-11-25T10:17:38.135Z,13.52
2022-11-25T10:20:16.939Z,17.20
2022-11-25T10:22:46.908Z,12.50
2022-11-25T10:25:18.523Z,11.55
2022-11-25T10:28:03.590Z,15.40
2022-11-25T10:30:44.047Z,18.83
2022-11-25T10:33:17.706Z,16.73
2022-11-25T10:36:13.201Z,13.52
2022-11-25T10:38:48.934Z,18.50
2022-11-25T10:41:21.700Z,18.35
2022-11-25T10:43:48.654Z,17.88
2022-11-25T10:46:23.179Z,15.85
2022-11-25T10:49:04.523Z,12.68
2022-11-25T10:51:46.114Z,15.95
2022-11-25T10:54:27.190Z,15.85
2022-11-25T10:57:03.263Z,11.48
2022-11-25T10:59:34.872Z,15.75
2022-11-25T11:02:19.322Z,12.57
2022-11-25T11:05:02.592Z,14.88
2022-11-25T11:07:35.017Z,18.50
2022-11-25T11:10:21.470Z,18.20
2022-11-25T11:13:02.684Z,10.75
2022-11-25T11:15:32.782Z,15.55
2022-11-25T11:18:14.469Z,14.80
2022-11-25T11:20:47.198Z,13.40
2022-11-25T11:23:14.591Z,19.35
2022-11-25T11:25:43.463Z,14.13
2022-11-25T11:28:35.973Z,14.70
2022-11-25T11:31:19.113Z,15.50
2022-11-25T11:33:48.710Z,16.15
2022-11-25T11:36:31.910Z,11.43
2022-11-25T11:39:19.315Z,15.60
2022-11-25T11:41:59.823Z,13.85
2022-11-25T11:44:57.358Z,19.77
2022-11-25T11:47:32.889Z,18.92
2022-11-25T11:50:25.083Z,14.80
2022-11-25T11:53:13.594Z,16.40
2022-11-25T11:56:33.085Z,14.60
2022-11-25T11:59:21.169Z,11.55
2022-11-25T12:02:19.859Z,18.17
2022-11-25T12:05:09.844Z,10.00
2022-11-25T12:08:16.774Z,16.23
2022-11-25T12:10:48.180Z,10.95
2022-11-25T12:16:10.578Z,14.35
2022-11-25T12:18:56.502Z,17.52
2022-11-25T12:21:49.796Z,16.70
2022-11-25T12:24:25.353Z,20.38
2022-11-25T12:27:06.653Z,15.38
2022-11-25T12:29:44.031Z,19.25
2022-11-25T12:32:29.616Z,10.93
2022-11-25T12:35:25.071Z,11.15
2022-11-25T12:38:09.156Z,12.68
2022-11-25T12:41:01.800Z,15.43
2022-11-25T12:43:40.707Z,15.75
2022-11-25T12:46:16.148Z,12.77
2022-11-25T12:48:43.687Z,11.70
2022-11-25T12:51:46.059Z,12.25
2022-11-25T12:54:44.805Z,15.05
2022-11-25T12:57:25.598Z,14.32
2022-11-25T13:03:27.227Z,11.57
2022-11-25T13:06:26.173Z,12.55
2022-11-25T13:09:35.914Z,12.00
2022-11-25T13:12:13.988Z,10.55
2022-11-25T13:15:13.158Z,11.80
2022-11-25T13:17:42.946Z,8.77
2022-11-25T13:20:28.038Z,8.60
2022-11-25T13:23:10.476Z,10.90
2022-11-25T13:25:39.778Z,17.73
2022-11-25T13:28:31.052Z,9.98
2022-11-25T13:31:16.217Z,13.65
2022-11-25T13:33:42.882Z,15.55
2022-11-25T13:36:49.598Z,13.50
2022-11-25T13:39:37.271Z,6.18
2022-11-25T13:42:25.777Z,7.32
2022-11-25T13:44:57.658Z,13.63
2022-11-25T13:50:19.011Z,13.68
2022-11-25T13:53:16.192Z,9.45
2022-11-25T13:55:42.909Z,11.70
2022-11-25T13:58:09.555Z,10.57
2022-11-25T14:00:36.157Z,9.82
2022-11-25T14:03:45.784Z,14.02
2022-11-25T14:06:28.166Z,11.05
2022-11-25T14:09:26.322Z,7.80
2022-11-25T14:12:30.859Z,10.05
2022-11-25T14:15:12.034Z,13.43
2022-11-25T14:17:47.899Z,10.57
2022-11-25T14:20:39.758Z,9.05
2022-11-25T14:23:50.549Z,9.35
2022-11-25T14:26:50.237Z,11.25
2022-11-25T14:29:25.888Z,12.70
2022-11-25T14:32:00.014Z,15.25
2022-11-25T14:34:39.957Z,9.80
2022-11-25T14:37:32.614Z,12.38
2022-11-25T14:40:06.477Z,14.63
2022-11-25T14:42:37.378Z,14.20
2022-11-25T14:45:29.843Z,11.20
2022-11-25T14:47:57.210Z,9.60
2022-11-25T14:50:34.753Z,11.27
2022-11-25T14:53:09.475Z,11.73
2022-11-25T14:55:37.849Z,11.23
2022-11-25T14:58:04.665Z,9.88
2022-11-25T15:00:31.360Z,11.93
2022-11-25T15:03:02.856Z,10.52
2022-11-25T15:05:32.365Z,10.93
2022-11-25T15:08:11.699Z,10.32
2022-11-25T15:10:40.438Z,12.98
2022-11-25T15:13:14.003Z,12.15
2022-11-25T15:15:44.076Z,10.50
2022-11-25T15:18:17.105Z,11.63
2022-11-25T15:20:50.905Z,14.02
2022-11-25T15:23:24.286Z,11.98
2022-11-25T15:25:54.436Z,15.30
2022-11-25T15:28:21.308Z,10.23
2022-11-25T15:30:59.543Z,9.65
2022-11-25T15:33:28.156Z,12.88
2022-11-25T15:35:55.516Z,16.63
2022-11-25T15:38:44.878Z,16.02
2022-11-25T15:41:25.656Z,12.48
2022-11-25T15:43:55.118Z,16.98
2022-11-25T15:46:23.693Z,12.57
2022-11-25T15:48:52.941Z,13.52
2022-11-25T15:51:43.994Z,13.63
2022-11-25T15:54:17.452Z,14.30
2022-11-25T15:56:51.022Z,18.60
2022-11-25T15:59:47.785Z,16.48
2022-11-25T16:02:49.846Z,15.77
2022-11-25T16:07:52.638Z,15.40
2022-11-25T16:10:34.634Z,14.25
2022-11-25T16:13:23.400Z,13.82
2022-11-25T16:15:56.191Z,15.25
2022-11-25T16:18:43.336Z,14.02
2022-11-25T16:21:18.224Z,10.73
2022-11-25T16:23:52.177Z,17.77
2022-11-25T16:26:31.754Z,16.73
2022-11-25T16:29:01.163Z,16.30
2022-11-25T16:31:28.565Z,16.33
2022-11-25T16:33:59.193Z,19.70
2022-11-25T16:36:25.932Z,17.30
2022-11-25T16:38:54.322Z,17.27
2022-11-25T16:41:24.940Z,18.33
2022-11-25T16:43:51.894Z,13.88
2022-11-25T16:46:20.265Z,17.38
2022-11-25T16:48:47.775Z,14.90
2022-11-25T16:51:19.953Z,16.33
2022-11-25T16:53:47.938Z,17.20
2022-11-25T16:56:28.065Z,21.27
2022-11-25T16:58:55.074Z,18.55
2022-11-25T17:01:25.492Z,26.83
2022-11-25T17:03:52.658Z,20.05
2022-11-25T17:06:22.838Z,19.45
2022-11-25T17:08:50.172Z,25.98
2022-11-25T17:11:28.074Z,17.00
2022-11-25T17:13:55.992Z,13.05
2022-11-25T17:16:25.623Z,14.35
2022-11-25T17:18:54.596Z,16.10
2022-11-25T17:21:26.747Z,20.27
2022-11-25T17:24:02.647Z,19.17
2022-11-25T17:26:41.754Z,19.83
2022-11-25T17:29:14.340Z,15.10
2022-11-25T17:31:41.510Z,21.60
2022-11-25T17:34:16.129Z,15.27
2022-11-25T17:36:44.741Z,15.02
2022-11-25T17:39:12.673Z,16.10
2022-11-25T17:41:51.322Z,18.05
2022-11-25T17:44:25.382Z,22.58
2022-11-25T17:46:53.651Z,18.40
2022-11-25T17:49:20.919Z,19.17
2022-11-25T17:51:47.757Z,19.10
2022-11-25T17:54:14.944Z,16.50
2022-11-25T17:56:46.576Z,16.80
2022-11-25T17:59:23.453Z,15.93
2022-11-25T18:01:50.209Z,17.35
2022-11-25T18:04:21.707Z,25.15
2022-11-25T18:06:48.819Z,14.60
2022-11-25T18:09:17.194Z,16.77
2022-11-25T18:11:48.601Z,19.63
2022-11-25T18:14:23.333Z,15.45
2022-11-25T18:16:50.235Z,19.80
2022-11-25T18:19:17.102Z,24.08
2022-11-25T18:21:43.806Z,26.15
2022-11-25T18:24:10.545Z,17.67
2022-11-25T18:26:49.605Z,24.98
2022-11-25T18:29:24.361Z,19.10
2022-11-25T18:31:53.569Z,18.80
2022-11-25T18:34:20.322Z,17.00
2022-11-25T18:36:47.220Z,24.52
2022-11-25T18:39:14.196Z,30.20
2022-11-25T18:41:42.807Z,24.38
2022-11-25T18:44:25.900Z,30.63
2022-11-25T18:46:53.484Z,26.17
2022-11-25T18:49:20.590Z,21.83
2022-11-25T18:51:47.477Z,25.17
2022-11-25T18:54:14.252Z,16.02
2022-11-25T18:56:41.578Z,22.88
2022-11-25T18:59:25.859Z,26.52
2022-11-25T19:01:52.632Z,22.58
2022-11-25T19:04:19.412Z,23.20
2022-11-25T19:06:46.102Z,23.65
2022-11-25T19:09:12.898Z,20.08
2022-11-25T19:11:43.198Z,19.70
2022-11-25T19:14:35.972Z,23.52
2022-11-25T19:17:07.188Z,26.05
2022-11-25T19:19:34.012Z,25.15
2022-11-25T19:22:01.497Z,26.60
2022-11-25T19:24:29.002Z,24.27
2022-11-25T19:26:57.326Z,27.00
2022-11-25T19:29:32.332Z,30.38
2022-11-25T19:32:01.821Z,19.13
2022-11-25T19:34:43.835Z,24.88
2022-11-25T19:37:20.265Z,23.40
2022-11-25T19:39:50.033Z,22.38
2022-11-25T19:42:17.081Z,32.70
2022-11-25T19:44:45.250Z,23.70
2022-11-25T19:47:16.899Z,26.58
2022-11-25T19:52:20.215Z,28.02
2022-11-25T19:54:47.057Z,34.28
2022-11-25T19:57:19.597Z,31.35
2022-11-25T19:59:46.707Z,20.05
2022-11-25T20:02:20.423Z,30.27
2022-11-25T20:04:49.783Z,32.00
2022-11-25T20:07:18.915Z,29.83
2022-11-25T20:09:45.912Z,31.70
2022-11-25T20:12:22.551Z,23.60
2022-11-25T20:14:50.228Z,31.08
2022-11-25T20:17:34.697Z,29.40
2022-11-25T20:20:16.416Z,27.23
2022-11-25T20:22:51.985Z,23.58
2022-11-25T20:25:19.334Z,27.27
2022-11-25T20:27:46.153Z,25.92
2022-11-25T20:30:16.679Z,26.15
2022-11-25T20:32:44.093Z,25.05
2022-11-25T20:35:11.274Z,28.52
2022-11-25T20:37:59.220Z,29.33
2022-11-25T20:40:38.083Z,31.20
2022-11-25T20:43:05.594Z,23.90
2022-11-25T20:45:32.342Z,28.98
2022-11-25T20:47:59.217Z,29.08
2022-11-25T20:50:29.985Z,28.02
2022-11-25T20:52:57.048Z,29.48
2022-11-25T20:55:25.625Z,26.38
2022-11-25T20:57:52.741Z,27.70
2022-11-25T21:00:24.295Z,22.98
2022-11-25T21:02:52.733Z,27.10
2022-11-25T21:05:20.370Z,26.45
2022-11-25T21:07:49.458Z,32.55
2022-11-25T21:10:27.136Z,32.95
2022-11-25T21:12:54.744Z,34.72
2022-11-25T21:15:24.340Z,25.05
2022-11-25T21:17:51.833Z,19.88
2022-11-25T21:20:20.036Z,22.83
2022-11-25T21:22:50.472Z,29.65
2022-11-25T21:25:19.474Z,26.55
2022-11-25T21:27:47.782Z,28.67
2022-11-25T21:30:20.724Z,30.27
2022-11-25T21:32:47.958Z,29.65
2022-11-25T21:35:15.184Z,22.83
2022-11-25T21:37:44.380Z,34.60
2022-11-25T21:40:27.136Z,32.60
2022-11-25T21:42:54.949Z,28.70
2022-11-25T21:45:21.884Z,27.75
2022-11-25T21:47:48.644Z,22.00
2022-11-25T21:50:17.201Z,33.83
2022-11-25T21:52:44.123Z,26.20
2022-11-25T21:55:15.976Z,28.58
2022-11-25T22:00:24.621Z,27.02
2022-11-25T22:02:52.440Z,32.90
2022-11-25T22:05:21.499Z,28.42
2022-11-25T22:07:48.548Z,27.35
2022-11-25T22:10:16.772Z,30.00
2022-11-25T22:12:45.668Z,27.65
2022-11-25T22:15:18.837Z,29.63
2022-11-25T22:17:46.033Z,33.20
2022-11-25T22:20:29.375Z,28.48
2022-11-25T22:22:56.707Z,31.65
2022-11-25T22:25:26.726Z,28.27
2022-11-25T22:27:53.693Z,34.72
2022-11-25T22:30:22.115Z,29.75
2022-11-25T22:32:57.213Z,30.38
2022-11-25T22:35:23.930Z,24.52
2022-11-25T22:37:55.156Z,28.55
2022-11-25T22:42:51.838Z,27.95
2022-11-25T22:45:30.254Z,32.33
2022-11-25T22:47:58.270Z,29.27
2022-11-25T22:50:30.718Z,27.23
2022-11-25T22:52:58.380Z,27.33
2022-11-25T22:55:32.959Z,28.63
2022-11-25T22:58:01.288Z,29.92
2022-11-25T23:00:35.004Z,37.08
2022-11-25T23:03:04.673Z,27.90
2022-11-25T23:05:34.276Z,30.23
2022-11-25T23:08:14.036Z,34.10
2022-11-25T23:10:41.685Z,34.28
2022-11-25T23:13:08.843Z,36.13
2022-11-25T23:15:36.148Z,36.58
2022-11-25T23:18:05.157Z,36.90
2022-11-25T23:20:33.537Z,40.33
2022-11-25T23:23:10.986Z,29.65
2022-11-25T23:25:37.950Z,34.17
2022-11-25T23:28:04.746Z,41.25
2022-11-25T23:30:31.825Z,44.75
2022-11-25T23:32:59.119Z,39.92
2022-11-25T23:35:38.941Z,31.75
2022-11-25T23:38:11.955Z,45.10
2022-11-25T23:40:39.178Z,41.80
2022-11-25T23:43:12.399Z,39.95
2022-11-25T23:45:52.478Z,39.45
2022-11-25T23:48:21.434Z,44.05
2022-11-25T23:50:49.035Z,42.47
2022-11-25T23:53:30.990Z,33.58
2022-11-25T23:55:57.978Z,42.13
2022-11-25T23:58:24.709Z,36.05
